sensor_id;sensor_type;location;lat;lon;timestamp;pressure;altitude;pressure_sealevel;temperature
68743;BMP180;55725;42.758;26.702;2022-08-01T00:00:53;98809.00;;;19.20
68743;BMP180;55725;42.758;26.702;2022-08-01T00:02:34;98814.00;;;19.30
68743;BMP180;55725;42.758;26.702;2022-08-01T00:04:14;98804.00;;;18.90
68743;BMP180;55725;42.758;26.702;2022-08-01T00:05:54;98810.00;;;19.00
68743;BMP180;55725;42.758;26.702;2022-08-01T00:07:35;98809.00;;;19.40
68743;BMP180;55725;42.758;26.702;2022-08-01T00:09:15;98804.00;;;18.70
68743;BMP180;55725;42.758;26.702;2022-08-01T00:10:55;98808.00;;;19.00
68743;BMP180;55725;42.758;26.702;2022-08-01T00:12:36;98805.00;;;19.30
68743;BMP180;55725;42.758;26.702;2022-08-01T00:14:16;98803.00;;;19.30
68743;BMP180;55725;42.758;26.702;2022-08-01T00:15:57;98800.00;;;18.70
68743;BMP180;55725;42.758;26.702;2022-08-01T00:17:37;98806.00;;;18.70
68743;BMP180;55725;42.758;26.702;2022-08-01T00:19:17;98801.00;;;18.80
68743;BMP180;55725;42.758;26.702;2022-08-01T00:20:58;98809.00;;;18.70
68743;BMP180;55725;42.758;26.702;2022-08-01T00:22:38;98808.00;;;18.30
68743;BMP180;55725;42.758;26.702;2022-08-01T00:24:18;98803.00;;;18.60
68743;BMP180;55725;42.758;26.702;2022-08-01T00:25:59;98815.00;;;18.70
68743;BMP180;55725;42.758;26.702;2022-08-01T00:27:39;98806.00;;;18.30
68743;BMP180;55725;42.758;26.702;2022-08-01T00:29:20;98804.00;;;18.50
68743;BMP180;55725;42.758;26.702;2022-08-01T00:31:00;98787.00;;;18.20
68743;BMP180;55725;42.758;26.702;2022-08-01T00:32:41;98793.00;;;18.60
68743;BMP180;55725;42.758;26.702;2022-08-01T00:34:21;98792.00;;;18.50
68743;BMP180;55725;42.758;26.702;2022-08-01T00:36:02;98791.00;;;19.00
68743;BMP180;55725;42.758;26.702;2022-08-01T00:37:42;98781.00;;;19.20
68743;BMP180;55725;42.758;26.702;2022-08-01T00:39:24;98788.00;;;19.50
68743;BMP180;55725;42.758;26.702;2022-08-01T00:41:04;98791.00;;;20.10
68743;BMP180;55725;42.758;26.702;2022-08-01T00:42:44;98785.00;;;19.80
68743;BMP180;55725;42.758;26.702;2022-08-01T00:44:25;98798.00;;;18.80
68743;BMP180;55725;42.758;26.702;2022-08-01T00:46:05;98792.00;;;19.20
68743;BMP180;55725;42.758;26.702;2022-08-01T00:47:46;98801.00;;;18.80
68743;BMP180;55725;42.758;26.702;2022-08-01T00:49:27;98788.00;;;18.30
68743;BMP180;55725;42.758;26.702;2022-08-01T00:51:07;98786.00;;;18.80
68743;BMP180;55725;42.758;26.702;2022-08-01T00:52:48;98786.00;;;20.00
68743;BMP180;55725;42.758;26.702;2022-08-01T00:54:28;98772.00;;;20.20
68743;BMP180;55725;42.758;26.702;2022-08-01T00:56:09;98783.00;;;19.50
68743;BMP180;55725;42.758;26.702;2022-08-01T00:57:50;98788.00;;;20.00
68743;BMP180;55725;42.758;26.702;2022-08-01T00:59:31;98770.00;;;20.40
68743;BMP180;55725;42.758;26.702;2022-08-01T01:01:11;98779.00;;;19.90
68743;BMP180;55725;42.758;26.702;2022-08-01T01:02:51;98779.00;;;19.80
68743;BMP180;55725;42.758;26.702;2022-08-01T01:04:32;98776.00;;;20.70
68743;BMP180;55725;42.758;26.702;2022-08-01T01:12:04;98786.00;;;21.10
68743;BMP180;55725;42.758;26.702;2022-08-01T01:15:56;98775.00;;;21.10
68743;BMP180;55725;42.758;26.702;2022-08-01T01:17:40;98770.00;;;21.10
68743;BMP180;55725;42.758;26.702;2022-08-01T01:19:23;98777.00;;;21.00
68743;BMP180;55725;42.758;26.702;2022-08-01T01:21:07;98783.00;;;21.10
68743;BMP180;55725;42.758;26.702;2022-08-01T01:24:37;98776.00;;;21.20
68743;BMP180;55725;42.758;26.702;2022-08-01T01:26:23;98771.00;;;21.20
68743;BMP180;55725;42.758;26.702;2022-08-01T01:29:52;98767.00;;;21.40
68743;BMP180;55725;42.758;26.702;2022-08-01T01:32:17;98770.00;;;21.40
68743;BMP180;55725;42.758;26.702;2022-08-01T01:33:37;98775.00;;;21.40
68743;BMP180;55725;42.758;26.702;2022-08-01T01:35:25;98766.00;;;21.40
68743;BMP180;55725;42.758;26.702;2022-08-01T01:37:08;98768.00;;;21.30
68743;BMP180;55725;42.758;26.702;2022-08-01T01:38:49;98765.00;;;21.30
68743;BMP180;55725;42.758;26.702;2022-08-01T01:40:30;98762.00;;;21.40
68743;BMP180;55725;42.758;26.702;2022-08-01T01:42:11;98764.00;;;21.30
68743;BMP180;55725;42.758;26.702;2022-08-01T01:43:52;98768.00;;;21.30
68743;BMP180;55725;42.758;26.702;2022-08-01T01:45:33;98757.00;;;21.40
68743;BMP180;55725;42.758;26.702;2022-08-01T01:47:14;98753.00;;;21.20
68743;BMP180;55725;42.758;26.702;2022-08-01T01:48:56;98761.00;;;21.10
68743;BMP180;55725;42.758;26.702;2022-08-01T01:50:37;98754.00;;;21.10
68743;BMP180;55725;42.758;26.702;2022-08-01T01:52:18;98747.00;;;21.20
68743;BMP180;55725;42.758;26.702;2022-08-01T01:53:59;98756.00;;;20.90
68743;BMP180;55725;42.758;26.702;2022-08-01T01:55:41;98757.00;;;21.20
68743;BMP180;55725;42.758;26.702;2022-08-01T01:57:23;98753.00;;;20.90
68743;BMP180;55725;42.758;26.702;2022-08-01T01:59:04;98742.00;;;21.20
68743;BMP180;55725;42.758;26.702;2022-08-01T02:00:45;98743.00;;;21.20
68743;BMP180;55725;42.758;26.702;2022-08-01T02:02:26;98745.00;;;21.20
68743;BMP180;55725;42.758;26.702;2022-08-01T02:04:07;98736.00;;;21.30
68743;BMP180;55725;42.758;26.702;2022-08-01T02:05:48;98737.00;;;21.20
68743;BMP180;55725;42.758;26.702;2022-08-01T02:07:29;98734.00;;;21.10
68743;BMP180;55725;42.758;26.702;2022-08-01T02:09:10;98741.00;;;21.20
68743;BMP180;55725;42.758;26.702;2022-08-01T02:10:52;98738.00;;;21.10
68743;BMP180;55725;42.758;26.702;2022-08-01T02:12:52;98733.00;;;21.10
68743;BMP180;55725;42.758;26.702;2022-08-01T02:14:33;98742.00;;;21.20
68743;BMP180;55725;42.758;26.702;2022-08-01T02:16:15;98744.00;;;21.20
68743;BMP180;55725;42.758;26.702;2022-08-01T02:17:56;98749.00;;;21.40
68743;BMP180;55725;42.758;26.702;2022-08-01T02:19:37;98757.00;;;21.20
68743;BMP180;55725;42.758;26.702;2022-08-01T02:21:20;98752.00;;;21.20
68743;BMP180;55725;42.758;26.702;2022-08-01T02:23:12;98751.00;;;21.20
68743;BMP180;55725;42.758;26.702;2022-08-01T02:25:03;98747.00;;;21.20
68743;BMP180;55725;42.758;26.702;2022-08-01T02:26:49;98750.00;;;21.00
68743;BMP180;55725;42.758;26.702;2022-08-01T02:28:31;98745.00;;;20.90
68743;BMP180;55725;42.758;26.702;2022-08-01T02:30:13;98741.00;;;20.30
68743;BMP180;55725;42.758;26.702;2022-08-01T02:31:54;98739.00;;;20.40
68743;BMP180;55725;42.758;26.702;2022-08-01T02:33:38;98735.00;;;20.60
68743;BMP180;55725;42.758;26.702;2022-08-01T02:35:20;98743.00;;;20.70
68743;BMP180;55725;42.758;26.702;2022-08-01T02:37:02;98742.00;;;20.50
68743;BMP180;55725;42.758;26.702;2022-08-01T02:38:43;98746.00;;;20.30
68743;BMP180;55725;42.758;26.702;2022-08-01T02:40:26;98742.00;;;20.40
68743;BMP180;55725;42.758;26.702;2022-08-01T02:42:07;98743.00;;;21.10
68743;BMP180;55725;42.758;26.702;2022-08-01T02:43:49;98737.00;;;20.90
68743;BMP180;55725;42.758;26.702;2022-08-01T02:45:31;98739.00;;;20.90
68743;BMP180;55725;42.758;26.702;2022-08-01T02:47:13;98732.00;;;21.10
68743;BMP180;55725;42.758;26.702;2022-08-01T02:48:55;98731.00;;;21.00
68743;BMP180;55725;42.758;26.702;2022-08-01T02:50:38;98720.00;;;20.90
68743;BMP180;55725;42.758;26.702;2022-08-01T02:52:20;98722.00;;;21.10
68743;BMP180;55725;42.758;26.702;2022-08-01T02:54:01;98725.00;;;21.00
68743;BMP180;55725;42.758;26.702;2022-08-01T02:55:42;98722.00;;;21.00
68743;BMP180;55725;42.758;26.702;2022-08-01T02:57:25;98714.00;;;21.10
68743;BMP180;55725;42.758;26.702;2022-08-01T02:59:07;98711.00;;;21.00
68743;BMP180;55725;42.758;26.702;2022-08-01T03:00:49;98714.00;;;21.00
68743;BMP180;55725;42.758;26.702;2022-08-01T03:02:29;98697.00;;;21.00
68743;BMP180;55725;42.758;26.702;2022-08-01T03:04:10;98715.00;;;21.00
68743;BMP180;55725;42.758;26.702;2022-08-01T03:05:51;98718.00;;;21.00
68743;BMP180;55725;42.758;26.702;2022-08-01T03:07:32;98717.00;;;21.00
68743;BMP180;55725;42.758;26.702;2022-08-01T03:09:13;98716.00;;;21.00
68743;BMP180;55725;42.758;26.702;2022-08-01T03:10:54;98710.00;;;21.00
68743;BMP180;55725;42.758;26.702;2022-08-01T03:12:35;98713.00;;;21.00
68743;BMP180;55725;42.758;26.702;2022-08-01T03:14:17;98713.00;;;21.10
68743;BMP180;55725;42.758;26.702;2022-08-01T03:15:58;98716.00;;;21.10
68743;BMP180;55725;42.758;26.702;2022-08-01T03:17:40;98721.00;;;21.10
68743;BMP180;55725;42.758;26.702;2022-08-01T03:19:22;98727.00;;;21.10
68743;BMP180;55725;42.758;26.702;2022-08-01T03:21:03;98716.00;;;21.10
68743;BMP180;55725;42.758;26.702;2022-08-01T03:22:44;98705.00;;;21.10
68743;BMP180;55725;42.758;26.702;2022-08-01T03:24:25;98708.00;;;21.10
68743;BMP180;55725;42.758;26.702;2022-08-01T03:26:06;98708.00;;;21.10
68743;BMP180;55725;42.758;26.702;2022-08-01T03:27:51;98709.00;;;21.10
68743;BMP180;55725;42.758;26.702;2022-08-01T03:29:34;98702.00;;;21.10
68743;BMP180;55725;42.758;26.702;2022-08-01T03:31:14;98706.00;;;21.20
68743;BMP180;55725;42.758;26.702;2022-08-01T03:32:55;98703.00;;;21.20
68743;BMP180;55725;42.758;26.702;2022-08-01T03:34:35;98700.00;;;21.20
68743;BMP180;55725;42.758;26.702;2022-08-01T03:36:15;98708.00;;;21.30
68743;BMP180;55725;42.758;26.702;2022-08-01T03:37:56;98701.00;;;21.30
68743;BMP180;55725;42.758;26.702;2022-08-01T03:39:42;98698.00;;;21.20
68743;BMP180;55725;42.758;26.702;2022-08-01T03:41:25;98706.00;;;21.30
68743;BMP180;55725;42.758;26.702;2022-08-01T03:43:11;98699.00;;;21.30
68743;BMP180;55725;42.758;26.702;2022-08-01T03:44:57;98705.00;;;21.30
68743;BMP180;55725;42.758;26.702;2022-08-01T03:46:47;98704.00;;;21.30
68743;BMP180;55725;42.758;26.702;2022-08-01T03:48:28;98714.00;;;21.30
68743;BMP180;55725;42.758;26.702;2022-08-01T03:50:11;98703.00;;;21.30
68743;BMP180;55725;42.758;26.702;2022-08-01T03:51:53;98704.00;;;21.30
68743;BMP180;55725;42.758;26.702;2022-08-01T03:53:34;98707.00;;;21.30
68743;BMP180;55725;42.758;26.702;2022-08-01T03:55:15;98703.00;;;21.40
68743;BMP180;55725;42.758;26.702;2022-08-01T03:56:57;98694.00;;;21.40
68743;BMP180;55725;42.758;26.702;2022-08-01T03:58:40;98701.00;;;21.40
68743;BMP180;55725;42.758;26.702;2022-08-01T04:00:21;98699.00;;;21.40
68743;BMP180;55725;42.758;26.702;2022-08-01T04:02:03;98699.00;;;21.50
68743;BMP180;55725;42.758;26.702;2022-08-01T04:03:44;98694.00;;;21.50
68743;BMP180;55725;42.758;26.702;2022-08-01T04:05:24;98691.00;;;21.50
68743;BMP180;55725;42.758;26.702;2022-08-01T04:07:05;98692.00;;;21.60
68743;BMP180;55725;42.758;26.702;2022-08-01T04:09:00;98700.00;;;21.60
68743;BMP180;55725;42.758;26.702;2022-08-01T04:10:40;98687.00;;;21.70
68743;BMP180;55725;42.758;26.702;2022-08-01T04:12:22;98689.00;;;21.70
68743;BMP180;55725;42.758;26.702;2022-08-01T04:14:02;98698.00;;;21.80
68743;BMP180;55725;42.758;26.702;2022-08-01T04:15:43;98703.00;;;21.80
68743;BMP180;55725;42.758;26.702;2022-08-01T04:17:23;98690.00;;;21.90
68743;BMP180;55725;42.758;26.702;2022-08-01T04:19:04;98698.00;;;21.90
68743;BMP180;55725;42.758;26.702;2022-08-01T04:20:47;98701.00;;;21.90
68743;BMP180;55725;42.758;26.702;2022-08-01T04:22:27;98693.00;;;21.90
68743;BMP180;55725;42.758;26.702;2022-08-01T04:24:10;98700.00;;;22.00
68743;BMP180;55725;42.758;26.702;2022-08-01T04:25:51;98702.00;;;22.00
68743;BMP180;55725;42.758;26.702;2022-08-01T04:27:32;98711.00;;;22.10
68743;BMP180;55725;42.758;26.702;2022-08-01T04:29:16;98710.00;;;22.10
68743;BMP180;55725;42.758;26.702;2022-08-01T04:30:57;98711.00;;;22.20
68743;BMP180;55725;42.758;26.702;2022-08-01T04:32:39;98711.00;;;22.20
68743;BMP180;55725;42.758;26.702;2022-08-01T04:34:21;98708.00;;;22.30
68743;BMP180;55725;42.758;26.702;2022-08-01T04:36:03;98716.00;;;22.30
68743;BMP180;55725;42.758;26.702;2022-08-01T04:37:44;98706.00;;;22.40
68743;BMP180;55725;42.758;26.702;2022-08-01T04:39:26;98716.00;;;22.40
68743;BMP180;55725;42.758;26.702;2022-08-01T04:41:09;98712.00;;;22.30
68743;BMP180;55725;42.758;26.702;2022-08-01T04:42:51;98711.00;;;22.40
68743;BMP180;55725;42.758;26.702;2022-08-01T04:44:31;98710.00;;;22.50
68743;BMP180;55725;42.758;26.702;2022-08-01T04:46:12;98707.00;;;22.50
68743;BMP180;55725;42.758;26.702;2022-08-01T04:47:53;98704.00;;;22.60
68743;BMP180;55725;42.758;26.702;2022-08-01T04:49:34;98708.00;;;22.70
68743;BMP180;55725;42.758;26.702;2022-08-01T04:51:14;98707.00;;;22.60
68743;BMP180;55725;42.758;26.702;2022-08-01T04:52:55;98709.00;;;22.70
68743;BMP180;55725;42.758;26.702;2022-08-01T04:54:35;98711.00;;;22.70
68743;BMP180;55725;42.758;26.702;2022-08-01T04:56:19;98701.00;;;22.70
68743;BMP180;55725;42.758;26.702;2022-08-01T04:58:00;98715.00;;;22.80
68743;BMP180;55725;42.758;26.702;2022-08-01T04:59:44;98709.00;;;22.90
68743;BMP180;55725;42.758;26.702;2022-08-01T05:01:26;98701.00;;;22.90
68743;BMP180;55725;42.758;26.702;2022-08-01T05:03:06;98697.00;;;23.10
68743;BMP180;55725;42.758;26.702;2022-08-01T05:04:46;98695.00;;;23.00
68743;BMP180;55725;42.758;26.702;2022-08-01T05:06:27;98689.00;;;23.00
68743;BMP180;55725;42.758;26.702;2022-08-01T05:08:07;98697.00;;;23.10
68743;BMP180;55725;42.758;26.702;2022-08-01T05:09:47;98691.00;;;23.20
68743;BMP180;55725;42.758;26.702;2022-08-01T05:11:28;98694.00;;;23.30
68743;BMP180;55725;42.758;26.702;2022-08-01T05:13:08;98698.00;;;23.40
68743;BMP180;55725;42.758;26.702;2022-08-01T05:14:48;98693.00;;;23.30
68743;BMP180;55725;42.758;26.702;2022-08-01T05:16:29;98676.00;;;23.40
68743;BMP180;55725;42.758;26.702;2022-08-01T05:18:09;98692.00;;;23.40
68743;BMP180;55725;42.758;26.702;2022-08-01T05:19:49;98679.00;;;23.50
68743;BMP180;55725;42.758;26.702;2022-08-01T05:21:30;98684.00;;;23.50
68743;BMP180;55725;42.758;26.702;2022-08-01T05:23:10;98670.00;;;23.60
68743;BMP180;55725;42.758;26.702;2022-08-01T05:24:51;98685.00;;;23.60
68743;BMP180;55725;42.758;26.702;2022-08-01T05:26:32;98683.00;;;23.50
68743;BMP180;55725;42.758;26.702;2022-08-01T05:28:13;98691.00;;;23.70
68743;BMP180;55725;42.758;26.702;2022-08-01T05:29:53;98676.00;;;23.70
68743;BMP180;55725;42.758;26.702;2022-08-01T05:31:33;98668.00;;;23.70
68743;BMP180;55725;42.758;26.702;2022-08-01T05:33:14;98671.00;;;23.80
68743;BMP180;55725;42.758;26.702;2022-08-01T05:34:54;98668.00;;;24.00
68743;BMP180;55725;42.758;26.702;2022-08-01T05:36:34;98680.00;;;23.90
68743;BMP180;55725;42.758;26.702;2022-08-01T05:38:17;98671.00;;;23.90
68743;BMP180;55725;42.758;26.702;2022-08-01T05:39:57;98674.00;;;23.90
68743;BMP180;55725;42.758;26.702;2022-08-01T05:41:38;98671.00;;;24.00
68743;BMP180;55725;42.758;26.702;2022-08-01T05:43:18;98660.00;;;24.20
68743;BMP180;55725;42.758;26.702;2022-08-01T05:44:59;98662.00;;;24.20
68743;BMP180;55725;42.758;26.702;2022-08-01T05:46:39;98665.00;;;24.30
68743;BMP180;55725;42.758;26.702;2022-08-01T05:48:19;98670.00;;;24.20
68743;BMP180;55725;42.758;26.702;2022-08-01T05:49:59;98674.00;;;24.30
68743;BMP180;55725;42.758;26.702;2022-08-01T05:51:40;98663.00;;;24.40
68743;BMP180;55725;42.758;26.702;2022-08-01T05:53:20;98654.00;;;24.20
68743;BMP180;55725;42.758;26.702;2022-08-01T05:55:00;98656.00;;;24.30
68743;BMP180;55725;42.758;26.702;2022-08-01T05:56:41;98654.00;;;24.50
68743;BMP180;55725;42.758;26.702;2022-08-01T05:58:21;98659.00;;;24.90
68743;BMP180;55725;42.758;26.702;2022-08-01T06:00:02;98651.00;;;24.90
68743;BMP180;55725;42.758;26.702;2022-08-01T06:01:42;98658.00;;;24.90
68743;BMP180;55725;42.758;26.702;2022-08-01T06:03:22;98650.00;;;24.60
68743;BMP180;55725;42.758;26.702;2022-08-01T06:05:03;98657.00;;;24.70
68743;BMP180;55725;42.758;26.702;2022-08-01T06:06:43;98661.00;;;24.60
68743;BMP180;55725;42.758;26.702;2022-08-01T06:08:24;98654.00;;;24.70
68743;BMP180;55725;42.758;26.702;2022-08-01T06:10:04;98632.00;;;24.90
68743;BMP180;55725;42.758;26.702;2022-08-01T06:11:45;98641.00;;;25.20
68743;BMP180;55725;42.758;26.702;2022-08-01T06:13:25;98656.00;;;25.10
68743;BMP180;55725;42.758;26.702;2022-08-01T06:15:06;98665.00;;;25.10
68743;BMP180;55725;42.758;26.702;2022-08-01T06:16:46;98665.00;;;25.00
68743;BMP180;55725;42.758;26.702;2022-08-01T06:18:26;98650.00;;;24.90
68743;BMP180;55725;42.758;26.702;2022-08-01T06:20:07;98648.00;;;24.90
68743;BMP180;55725;42.758;26.702;2022-08-01T06:21:47;98643.00;;;25.40
68743;BMP180;55725;42.758;26.702;2022-08-01T06:23:28;98648.00;;;25.40
68743;BMP180;55725;42.758;26.702;2022-08-01T06:25:08;98650.00;;;25.30
68743;BMP180;55725;42.758;26.702;2022-08-01T06:26:49;98656.00;;;25.50
68743;BMP180;55725;42.758;26.702;2022-08-01T06:28:29;98660.00;;;25.10
68743;BMP180;55725;42.758;26.702;2022-08-01T06:30:10;98643.00;;;25.10
68743;BMP180;55725;42.758;26.702;2022-08-01T06:31:50;98650.00;;;25.20
68743;BMP180;55725;42.758;26.702;2022-08-01T06:33:30;98648.00;;;25.00
68743;BMP180;55725;42.758;26.702;2022-08-01T06:35:11;98644.00;;;25.30
68743;BMP180;55725;42.758;26.702;2022-08-01T06:36:51;98658.00;;;25.30
68743;BMP180;55725;42.758;26.702;2022-08-01T06:38:32;98639.00;;;25.00
68743;BMP180;55725;42.758;26.702;2022-08-01T06:40:12;98637.00;;;25.60
68743;BMP180;55725;42.758;26.702;2022-08-01T06:41:52;98653.00;;;26.00
68743;BMP180;55725;42.758;26.702;2022-08-01T06:43:33;98653.00;;;25.50
68743;BMP180;55725;42.758;26.702;2022-08-01T06:45:13;98638.00;;;25.70
68743;BMP180;55725;42.758;26.702;2022-08-01T06:46:54;98653.00;;;25.80
68743;BMP180;55725;42.758;26.702;2022-08-01T06:48:35;98648.00;;;25.50
68743;BMP180;55725;42.758;26.702;2022-08-01T06:50:20;98662.00;;;25.80
68743;BMP180;55725;42.758;26.702;2022-08-01T06:52:00;98656.00;;;25.90
68743;BMP180;55725;42.758;26.702;2022-08-01T06:53:41;98645.00;;;26.20
68743;BMP180;55725;42.758;26.702;2022-08-01T06:55:21;98645.00;;;26.10
68743;BMP180;55725;42.758;26.702;2022-08-01T06:57:04;98651.00;;;26.00
68743;BMP180;55725;42.758;26.702;2022-08-01T06:58:44;98645.00;;;25.90
68743;BMP180;55725;42.758;26.702;2022-08-01T07:00:25;98656.00;;;26.10
68743;BMP180;55725;42.758;26.702;2022-08-01T07:02:05;98639.00;;;26.30
68743;BMP180;55725;42.758;26.702;2022-08-01T07:03:46;98642.00;;;26.00
68743;BMP180;55725;42.758;26.702;2022-08-01T07:05:26;98627.00;;;26.10
68743;BMP180;55725;42.758;26.702;2022-08-01T07:07:07;98632.00;;;26.10
68743;BMP180;55725;42.758;26.702;2022-08-01T07:08:47;98622.00;;;26.30
68743;BMP180;55725;42.758;26.702;2022-08-01T07:10:27;98635.00;;;26.10
68743;BMP180;55725;42.758;26.702;2022-08-01T07:12:08;98617.00;;;26.20
68743;BMP180;55725;42.758;26.702;2022-08-01T07:13:48;98629.00;;;26.50
68743;BMP180;55725;42.758;26.702;2022-08-01T07:15:28;98631.00;;;26.20
68743;BMP180;55725;42.758;26.702;2022-08-01T07:17:09;98635.00;;;25.90
68743;BMP180;55725;42.758;26.702;2022-08-01T07:18:49;98644.00;;;26.30
68743;BMP180;55725;42.758;26.702;2022-08-01T07:20:29;98639.00;;;26.60
68743;BMP180;55725;42.758;26.702;2022-08-01T07:22:10;98642.00;;;26.70
68743;BMP180;55725;42.758;26.702;2022-08-01T07:23:50;98640.00;;;26.90
68743;BMP180;55725;42.758;26.702;2022-08-01T07:25:30;98648.00;;;26.50
68743;BMP180;55725;42.758;26.702;2022-08-01T07:27:11;98650.00;;;26.80
68743;BMP180;55725;42.758;26.702;2022-08-01T07:28:51;98651.00;;;26.80
68743;BMP180;55725;42.758;26.702;2022-08-01T07:30:31;98651.00;;;27.10
68743;BMP180;55725;42.758;26.702;2022-08-01T07:32:12;98646.00;;;26.30
68743;BMP180;55725;42.758;26.702;2022-08-01T07:33:52;98639.00;;;26.70
68743;BMP180;55725;42.758;26.702;2022-08-01T07:35:32;98626.00;;;27.10
68743;BMP180;55725;42.758;26.702;2022-08-01T07:37:12;98625.00;;;26.90
68743;BMP180;55725;42.758;26.702;2022-08-01T07:38:53;98625.00;;;27.40
68743;BMP180;55725;42.758;26.702;2022-08-01T07:40:33;98627.00;;;27.20
68743;BMP180;55725;42.758;26.702;2022-08-01T07:42:13;98627.00;;;27.30
68743;BMP180;55725;42.758;26.702;2022-08-01T07:43:54;98622.00;;;27.20
68743;BMP180;55725;42.758;26.702;2022-08-01T07:45:34;98621.00;;;27.60
68743;BMP180;55725;42.758;26.702;2022-08-01T07:47:14;98620.00;;;27.70
68743;BMP180;55725;42.758;26.702;2022-08-01T07:48:55;98616.00;;;28.10
68743;BMP180;55725;42.758;26.702;2022-08-01T07:50:36;98617.00;;;28.30
68743;BMP180;55725;42.758;26.702;2022-08-01T07:52:16;98615.00;;;28.10
68743;BMP180;55725;42.758;26.702;2022-08-01T07:53:57;98628.00;;;27.90
68743;BMP180;55725;42.758;26.702;2022-08-01T07:55:37;98618.00;;;26.50
68743;BMP180;55725;42.758;26.702;2022-08-01T07:57:17;98618.00;;;27.70
68743;BMP180;55725;42.758;26.702;2022-08-01T07:58:57;98623.00;;;27.70
68743;BMP180;55725;42.758;26.702;2022-08-01T08:00:38;98618.00;;;28.00
68743;BMP180;55725;42.758;26.702;2022-08-01T08:02:18;98620.00;;;27.30
68743;BMP180;55725;42.758;26.702;2022-08-01T08:03:59;98629.00;;;28.10
68743;BMP180;55725;42.758;26.702;2022-08-01T08:05:39;98635.00;;;27.50
68743;BMP180;55725;42.758;26.702;2022-08-01T08:07:19;98632.00;;;27.50
68743;BMP180;55725;42.758;26.702;2022-08-01T08:09:00;98630.00;;;28.10
68743;BMP180;55725;42.758;26.702;2022-08-01T08:10:40;98623.00;;;28.20
68743;BMP180;55725;42.758;26.702;2022-08-01T08:12:20;98626.00;;;27.70
68743;BMP180;55725;42.758;26.702;2022-08-01T08:14:01;98632.00;;;28.20
68743;BMP180;55725;42.758;26.702;2022-08-01T08:15:41;98627.00;;;28.80
68743;BMP180;55725;42.758;26.702;2022-08-01T08:17:21;98634.00;;;28.90
68743;BMP180;55725;42.758;26.702;2022-08-01T08:19:02;98635.00;;;27.90
68743;BMP180;55725;42.758;26.702;2022-08-01T08:20:42;98639.00;;;27.70
68743;BMP180;55725;42.758;26.702;2022-08-01T08:22:22;98627.00;;;28.60
68743;BMP180;55725;42.758;26.702;2022-08-01T08:24:03;98620.00;;;29.30
68743;BMP180;55725;42.758;26.702;2022-08-01T08:26:01;98621.00;;;28.00
68743;BMP180;55725;42.758;26.702;2022-08-01T08:27:42;98622.00;;;27.90
68743;BMP180;55725;42.758;26.702;2022-08-01T08:29:22;98624.00;;;28.30
68743;BMP180;55725;42.758;26.702;2022-08-01T08:31:03;98632.00;;;27.50
68743;BMP180;55725;42.758;26.702;2022-08-01T08:32:43;98617.00;;;27.90
68743;BMP180;55725;42.758;26.702;2022-08-01T08:34:24;98622.00;;;28.20
68743;BMP180;55725;42.758;26.702;2022-08-01T08:36:04;98626.00;;;27.30
68743;BMP180;55725;42.758;26.702;2022-08-01T08:37:45;98625.00;;;28.50
68743;BMP180;55725;42.758;26.702;2022-08-01T08:39:25;98622.00;;;29.00
68743;BMP180;55725;42.758;26.702;2022-08-01T08:41:06;98627.00;;;29.70
68743;BMP180;55725;42.758;26.702;2022-08-01T08:42:46;98620.00;;;29.20
68743;BMP180;55725;42.758;26.702;2022-08-01T08:44:27;98613.00;;;28.20
68743;BMP180;55725;42.758;26.702;2022-08-01T08:46:08;98623.00;;;29.20
68743;BMP180;55725;42.758;26.702;2022-08-01T08:47:48;98635.00;;;28.60
68743;BMP180;55725;42.758;26.702;2022-08-01T08:49:29;98625.00;;;28.10
68743;BMP180;55725;42.758;26.702;2022-08-01T08:51:10;98613.00;;;28.10
68743;BMP180;55725;42.758;26.702;2022-08-01T08:52:52;98626.00;;;28.80
68743;BMP180;55725;42.758;26.702;2022-08-01T08:54:33;98620.00;;;27.40
68743;BMP180;55725;42.758;26.702;2022-08-01T08:56:15;98623.00;;;28.10
68743;BMP180;55725;42.758;26.702;2022-08-01T08:57:56;98619.00;;;28.50
68743;BMP180;55725;42.758;26.702;2022-08-01T08:59:36;98619.00;;;28.60
68743;BMP180;55725;42.758;26.702;2022-08-01T09:01:17;98606.00;;;29.50
68743;BMP180;55725;42.758;26.702;2022-08-01T09:02:58;98623.00;;;29.70
68743;BMP180;55725;42.758;26.702;2022-08-01T09:04:38;98616.00;;;29.30
68743;BMP180;55725;42.758;26.702;2022-08-01T09:06:20;98621.00;;;27.70
68743;BMP180;55725;42.758;26.702;2022-08-01T09:08:00;98615.00;;;29.40
68743;BMP180;55725;42.758;26.702;2022-08-01T09:09:40;98613.00;;;30.00
68743;BMP180;55725;42.758;26.702;2022-08-01T09:11:20;98607.00;;;28.30
68743;BMP180;55725;42.758;26.702;2022-08-01T09:13:11;98597.00;;;30.10
68743;BMP180;55725;42.758;26.702;2022-08-01T09:14:52;98610.00;;;30.20
68743;BMP180;55725;42.758;26.702;2022-08-01T09:16:33;98608.00;;;29.70
68743;BMP180;55725;42.758;26.702;2022-08-01T09:18:28;98598.00;;;29.40
68743;BMP180;55725;42.758;26.702;2022-08-01T09:20:08;98603.00;;;29.40
68743;BMP180;55725;42.758;26.702;2022-08-01T09:22:03;98593.00;;;28.30
68743;BMP180;55725;42.758;26.702;2022-08-01T09:23:45;98612.00;;;28.80
68743;BMP180;55725;42.758;26.702;2022-08-01T09:25:25;98614.00;;;30.40
68743;BMP180;55725;42.758;26.702;2022-08-01T09:27:17;98614.00;;;30.80
68743;BMP180;55725;42.758;26.702;2022-08-01T09:28:58;98610.00;;;30.90
68743;BMP180;55725;42.758;26.702;2022-08-01T09:30:39;98602.00;;;31.20
68743;BMP180;55725;42.758;26.702;2022-08-01T09:32:20;98609.00;;;31.60
68743;BMP180;55725;42.758;26.702;2022-08-01T09:34:00;98610.00;;;31.10
68743;BMP180;55725;42.758;26.702;2022-08-01T09:35:54;98610.00;;;31.70
68743;BMP180;55725;42.758;26.702;2022-08-01T09:37:35;98622.00;;;30.60
68743;BMP180;55725;42.758;26.702;2022-08-01T09:39:15;98615.00;;;31.00
68743;BMP180;55725;42.758;26.702;2022-08-01T09:40:57;98615.00;;;30.90
68743;BMP180;55725;42.758;26.702;2022-08-01T09:42:37;98608.00;;;31.80
68743;BMP180;55725;42.758;26.702;2022-08-01T09:44:17;98607.00;;;31.60
68743;BMP180;55725;42.758;26.702;2022-08-01T09:45:59;98600.00;;;31.70
68743;BMP180;55725;42.758;26.702;2022-08-01T09:47:39;98643.00;;;30.40